createdAt,value
2022-09-01T00:00:30.037Z,0.90
2022-09-01T00:02:58.308Z,2.53
2022-09-01T00:05:26.905Z,2.72
2022-09-01T00:07:55.045Z,2.08
2022-09-01T00:10:23.368Z,1.42
2022-09-01T00:12:51.625Z,3.33
2022-09-01T00:15:21.092Z,1.60
2022-09-01T00:17:49.228Z,1.58
2022-09-01T00:20:20.442Z,3.40
2022-09-01T00:22:49.805Z,1.23
2022-09-01T00:25:20.452Z,0.93
2022-09-01T00:27:49.354Z,1.55
2022-09-01T00:30:17.725Z,0.77
2022-09-01T00:32:47.600Z,1.33
2022-09-01T00:35:16.636Z,0.80
2022-09-01T00:37:44.911Z,3.10
2022-09-01T00:40:15.993Z,1.73
2022-09-01T00:42:45.908Z,1.42
2022-09-01T00:45:14.461Z,3.35
2022-09-01T00:47:42.929Z,1.13
2022-09-01T00:50:14.820Z,1.30
2022-09-01T00:52:46.861Z,1.38
2022-09-01T00:55:20.050Z,1.45
2022-09-01T00:57:48.844Z,1.60
2022-09-01T01:00:19.236Z,1.48
2022-09-01T01:02:48.961Z,0.85
2022-09-01T01:07:48.112Z,1.30
2022-09-01T01:10:18.911Z,1.42
2022-09-01T01:12:49.606Z,1.67
2022-09-01T01:15:17.900Z,3.35
2022-09-01T01:17:46.133Z,1.50
2022-09-01T01:20:35.938Z,1.13
2022-09-01T01:23:10.803Z,1.20
2022-09-01T01:25:42.587Z,0.80
2022-09-01T01:28:15.489Z,0.90
2022-09-01T01:30:45.576Z,0.70
2022-09-01T01:33:13.714Z,1.35
2022-09-01T01:35:42.456Z,1.10
2022-09-01T01:38:11.370Z,4.25
2022-09-01T01:40:41.587Z,3.13
2022-09-01T01:43:12.186Z,3.20
2022-09-01T01:45:40.408Z,2.17
2022-09-01T01:48:10.711Z,3.67
2022-09-01T01:50:39.232Z,1.90
2022-09-01T01:53:11.076Z,3.25
2022-09-01T01:55:41.850Z,3.70
2022-09-01T01:58:12.024Z,2.47
2022-09-01T02:00:42.943Z,2.17
2022-09-01T02:03:12.784Z,2.60
2022-09-01T02:05:41.873Z,2.53
2022-09-01T02:08:11.718Z,2.90
2022-09-01T02:10:44.260Z,1.85
2022-09-01T02:13:16.454Z,2.55
2022-09-01T02:15:47.724Z,1.08
2022-09-01T02:18:19.766Z,2.25
2022-09-01T02:20:49.561Z,1.10
2022-09-01T02:26:15.212Z,2.05
2022-09-01T02:28:45.416Z,1.58
2022-09-01T02:33:44.208Z,1.48
2022-09-01T02:36:15.322Z,1.80
2022-09-01T02:38:46.821Z,1.27
2022-09-01T02:41:23.735Z,1.15
2022-09-01T02:43:52.485Z,1.70
2022-09-01T02:46:24.681Z,1.20
2022-09-01T02:48:54.664Z,1.25
2022-09-01T02:53:55.147Z,2.25
2022-09-01T02:56:27.553Z,1.95
2022-09-01T02:58:55.973Z,1.42
2022-09-01T03:01:26.248Z,1.85
2022-09-01T03:03:56.647Z,0.57
2022-09-01T03:06:25.889Z,1.42
2022-09-01T03:08:55.861Z,1.23
2022-09-01T03:11:25.549Z,1.13
2022-09-01T03:13:54.133Z,0.93
2022-09-01T03:16:23.627Z,2.05
2022-09-01T03:18:52.098Z,0.88
2022-09-01T03:21:21.459Z,2.00
2022-09-01T03:23:50.727Z,0.85
2022-09-01T03:26:22.091Z,2.95
2022-09-01T03:28:52.255Z,1.75
2022-09-01T03:31:21.609Z,0.80
2022-09-01T03:33:51.112Z,0.77
2022-09-01T03:36:20.204Z,3.15
2022-09-01T03:38:50.136Z,0.63
2022-09-01T03:43:48.267Z,1.95
2022-09-01T03:46:21.693Z,1.15
2022-09-01T03:48:51.361Z,1.58
2022-09-01T03:51:22.725Z,5.88
2022-09-01T03:53:54.572Z,0.75
2022-09-01T03:56:25.162Z,0.75
2022-09-01T03:58:54.649Z,1.20
2022-09-01T04:01:25.176Z,3.35
2022-09-01T04:03:53.769Z,3.10
2022-09-01T04:06:24.299Z,1.45
2022-09-01T04:08:56.871Z,0.85
2022-09-01T04:11:25.382Z,1.90
2022-09-01T04:13:54.136Z,1.83
2022-09-01T04:16:43.475Z,0.80
2022-09-01T04:19:20.477Z,1.10
2022-09-01T04:21:50.495Z,1.45
2022-09-01T04:26:48.686Z,2.25
2022-09-01T04:29:18.862Z,0.82
2022-09-01T04:31:53.655Z,2.05
2022-09-01T04:34:22.896Z,1.33
2022-09-01T04:36:54.386Z,1.50
2022-09-01T04:39:23.057Z,2.30
2022-09-01T04:41:51.181Z,3.25
2022-09-01T04:44:20.204Z,2.00
2022-09-01T04:46:50.882Z,2.60
2022-09-01T04:49:22.203Z,4.40
2022-09-01T04:51:53.941Z,2.17
2022-09-01T04:54:23.941Z,1.10
2022-09-01T04:56:55.054Z,1.35
2022-09-01T04:59:27.197Z,5.07
2022-09-01T05:02:00.627Z,9.38
2022-09-01T05:04:33.926Z,5.43
2022-09-01T05:07:03.485Z,2.75
2022-09-01T05:09:35.594Z,35.97
2022-09-01T05:12:13.272Z,113.22
2022-09-01T05:14:47.331Z,136.02
2022-09-01T05:17:17.642Z,31.52
2022-09-01T05:19:51.203Z,41.25
2022-09-01T05:22:23.192Z,33.17
2022-09-01T05:24:54.873Z,24.13
2022-09-01T05:27:23.919Z,17.63
2022-09-01T05:29:53.223Z,16.95
2022-09-01T05:32:26.202Z,8.35
2022-09-01T05:34:54.791Z,7.13
2022-09-01T05:37:23.643Z,3.10
2022-09-01T05:39:52.903Z,2.42
2022-09-01T05:42:21.770Z,1.30
2022-09-01T05:44:52.593Z,8.60
2022-09-01T05:47:23.554Z,2.05
2022-09-01T05:49:53.713Z,3.75
2022-09-01T05:52:26.487Z,4.25
2022-09-01T05:54:55.600Z,1.80
2022-09-01T06:00:10.752Z,3.30
2022-09-01T06:02:41.126Z,2.63
2022-09-01T06:05:10.987Z,2.22
2022-09-01T06:07:42.819Z,2.90
2022-09-01T06:10:11.618Z,2.72
2022-09-01T06:12:40.712Z,1.52
2022-09-01T06:15:15.885Z,1.20
2022-09-01T06:17:46.381Z,2.28
2022-09-01T06:20:14.663Z,2.15
2022-09-01T06:22:42.991Z,1.42
2022-09-01T06:25:11.592Z,1.60
2022-09-01T06:27:41.286Z,1.85
2022-09-01T06:30:15.172Z,4.97
2022-09-01T06:32:45.422Z,4.63
2022-09-01T06:37:43.369Z,3.33
2022-09-01T06:40:17.208Z,1.85
2022-09-01T06:42:47.267Z,3.17
2022-09-01T06:47:47.308Z,3.20
2022-09-01T06:51:14.513Z,2.78
2022-09-01T06:55:59.407Z,2.22
2022-09-01T06:58:28.449Z,3.42
2022-09-01T07:00:56.522Z,1.13
2022-09-01T07:03:27.660Z,1.77
2022-09-01T07:06:03.890Z,2.08
2022-09-01T07:09:20.429Z,1.35
2022-09-01T07:14:17.846Z,2.65
2022-09-01T07:16:51.898Z,2.25
2022-09-01T07:19:21.745Z,1.15
2022-09-01T07:24:40.133Z,1.48
2022-09-01T07:27:09.567Z,3.60
2022-09-01T07:29:39.597Z,1.90
2022-09-01T07:35:01.233Z,1.75
2022-09-01T07:43:17.785Z,1.60
2022-09-01T07:46:36.616Z,2.30
2022-09-01T07:49:02.742Z,3.55
2022-09-01T07:51:36.547Z,1.75
2022-09-01T07:54:06.134Z,4.22
2022-09-01T07:56:39.851Z,1.97
2022-09-01T07:59:12.737Z,1.60
2022-09-01T08:01:44.326Z,8.32
2022-09-01T08:04:12.662Z,48.15
2022-09-01T08:06:42.356Z,20.75
2022-09-01T08:12:01.100Z,11.88
2022-09-01T08:14:33.730Z,21.13
2022-09-01T08:17:16.793Z,15.05
2022-09-01T08:19:47.075Z,11.25
2022-09-01T08:22:17.276Z,22.13
2022-09-01T08:24:45.355Z,8.77
2022-09-01T08:27:13.428Z,6.35
2022-09-01T08:29:42.940Z,5.88
2022-09-01T08:32:11.895Z,4.90
2022-09-01T08:34:40.184Z,11.30
2022-09-01T08:37:08.345Z,15.50
2022-09-01T08:39:37.893Z,15.15
2022-09-01T08:42:12.350Z,16.23
2022-09-01T08:44:48.978Z,21.52
2022-09-01T08:47:28.891Z,17.73
2022-09-01T08:50:01.721Z,26.90
2022-09-01T08:52:33.908Z,12.18
2022-09-01T08:55:08.468Z,14.13
2022-09-01T08:57:38.756Z,7.68
2022-09-01T09:00:09.695Z,6.93
2022-09-01T09:02:58.536Z,9.43
2022-09-01T09:05:44.445Z,10.67
2022-09-01T09:08:32.948Z,17.40
2022-09-01T09:11:06.524Z,16.42
2022-09-01T09:14:01.925Z,15.02
2022-09-01T09:16:33.065Z,10.77
2022-09-01T09:19:05.567Z,11.75
2022-09-01T09:21:37.299Z,14.85
2022-09-01T09:24:12.207Z,8.07
2022-09-01T09:26:42.956Z,12.57
2022-09-01T09:29:11.595Z,9.20
2022-09-01T09:31:50.017Z,5.18
2022-09-01T09:34:35.169Z,5.55
2022-09-01T09:37:27.665Z,4.97
2022-09-01T09:43:07.067Z,2.78
2022-09-01T09:45:41.687Z,2.25
2022-09-01T09:48:27.172Z,5.53
2022-09-01T09:50:55.246Z,6.07
2022-09-01T09:53:29.050Z,2.55
2022-09-01T09:56:02.556Z,5.13
2022-09-01T09:58:40.613Z,3.92
2022-09-01T10:01:15.310Z,7.80
2022-09-01T10:03:46.924Z,8.43
2022-09-01T10:06:31.224Z,6.07
2022-09-01T10:09:01.260Z,4.03
2022-09-01T10:11:35.598Z,9.27
2022-09-01T10:14:08.076Z,7.53
2022-09-01T10:16:40.071Z,3.42
2022-09-01T10:19:13.912Z,5.80
2022-09-01T10:21:45.940Z,7.05
2022-09-01T10:26:54.427Z,2.83
2022-09-01T10:29:33.721Z,4.03
2022-09-01T10:32:30.497Z,5.10
2022-09-01T10:34:59.720Z,7.20
2022-09-01T10:37:28.756Z,8.70
2022-09-01T10:40:20.630Z,4.55
2022-09-01T10:42:55.319Z,3.28
2022-09-01T10:45:35.814Z,5.40
2022-09-01T10:48:32.153Z,6.32
2022-09-01T10:51:38.472Z,8.38
2022-09-01T10:54:07.769Z,5.13
2022-09-01T10:56:44.401Z,3.45
2022-09-01T10:59:32.859Z,4.22
2022-09-01T11:02:34.808Z,4.18
2022-09-01T11:05:17.591Z,3.28
2022-09-01T11:08:03.146Z,3.83
2022-09-01T11:10:54.922Z,3.20
2022-09-01T11:13:46.293Z,2.65
2022-09-01T11:19:48.165Z,4.18
2022-09-01T11:22:29.491Z,6.87
2022-09-01T11:25:39.046Z,2.55
2022-09-01T11:28:26.904Z,9.25
2022-09-01T11:30:59.050Z,8.68
2022-09-01T11:33:47.824Z,5.22
2022-09-01T11:36:29.334Z,4.38
2022-09-01T11:39:05.912Z,3.25
2022-09-01T11:41:44.765Z,4.22
2022-09-01T11:44:16.145Z,4.88
2022-09-01T11:46:44.331Z,5.13
2022-09-01T11:49:29.584Z,2.08
2022-09-01T11:52:00.903Z,2.10
2022-09-01T11:54:31.139Z,3.08
2022-09-01T11:56:59.192Z,2.35
2022-09-01T11:59:35.017Z,4.97
2022-09-01T12:02:04.108Z,2.17
2022-09-01T12:04:36.313Z,1.40
2022-09-01T12:07:10.724Z,1.45
2022-09-01T12:09:42.806Z,2.05
2022-09-01T12:12:30.798Z,1.00
2022-09-01T12:15:05.555Z,3.90
2022-09-01T12:17:34.991Z,1.63
2022-09-01T12:20:28.843Z,1.60
2022-09-01T12:23:00.711Z,2.45
2022-09-01T12:25:30.725Z,2.15
2022-09-01T12:28:00.885Z,3.13
2022-09-01T12:30:29.617Z,1.52
2022-09-01T12:35:48.164Z,1.80
2022-09-01T12:38:32.027Z,3.28
2022-09-01T12:41:00.222Z,0.68
2022-09-01T12:43:34.019Z,1.95
2022-09-01T12:46:04.704Z,0.85
2022-09-01T12:48:35.216Z,1.40
2022-09-01T12:51:05.810Z,4.57
2022-09-01T12:53:37.170Z,0.70
2022-09-01T12:56:31.993Z,1.02
2022-09-01T12:59:15.645Z,2.75
2022-09-01T13:01:45.765Z,0.82
2022-09-01T13:04:33.809Z,8.40
2022-09-01T13:07:04.787Z,9.98
2022-09-01T13:09:35.228Z,4.03
2022-09-01T13:12:17.584Z,6.18
2022-09-01T13:14:45.792Z,5.15
2022-09-01T13:17:14.866Z,5.55
2022-09-01T13:19:43.263Z,2.65
2022-09-01T13:22:11.838Z,3.20
2022-09-01T13:24:41.349Z,2.50
2022-09-01T13:27:26.174Z,3.42
2022-09-01T13:29:55.580Z,1.85
2022-09-01T13:32:24.982Z,4.78
2022-09-01T13:34:54.778Z,4.05
2022-09-01T13:37:23.552Z,1.90
2022-09-01T13:39:53.022Z,1.67
2022-09-01T13:42:21.314Z,1.10
2022-09-01T13:44:52.480Z,1.75
2022-09-01T13:47:31.799Z,1.13
2022-09-01T13:50:21.666Z,2.15
2022-09-01T13:52:54.918Z,1.38
2022-09-01T13:55:26.925Z,1.20
2022-09-01T13:57:55.894Z,0.90
2022-09-01T14:00:26.548Z,0.80
2022-09-01T14:02:57.160Z,1.27
2022-09-01T14:05:27.517Z,1.17
2022-09-01T14:10:26.626Z,1.70
2022-09-01T14:12:54.941Z,0.90
2022-09-01T14:15:27.128Z,3.57
2022-09-01T14:17:58.082Z,2.63
2022-09-01T14:20:28.209Z,2.85
2022-09-01T14:22:56.636Z,1.55
2022-09-01T14:25:27.221Z,2.60
2022-09-01T14:27:56.837Z,3.47
2022-09-01T14:30:31.188Z,4.38
2022-09-01T14:33:00.430Z,3.78
2022-09-01T14:37:57.974Z,2.40
2022-09-01T14:40:29.445Z,4.25
2022-09-01T14:42:58.172Z,3.40
2022-09-01T14:45:29.752Z,7.25
2022-09-01T14:48:01.162Z,6.93
2022-09-01T14:50:32.589Z,10.88
2022-09-01T14:53:02.096Z,7.95
2022-09-01T14:55:32.957Z,5.90
2022-09-01T14:58:01.533Z,5.05
2022-09-01T15:00:31.665Z,5.07
2022-09-01T15:03:00.273Z,3.92
2022-09-01T15:05:28.587Z,5.88
2022-09-01T15:07:56.738Z,4.70
2022-09-01T15:10:27.305Z,2.37
2022-09-01T15:12:58.919Z,1.88
2022-09-01T15:15:28.318Z,23.20
2022-09-01T15:17:57.472Z,17.20
2022-09-01T15:20:43.297Z,13.27
2022-09-01T15:23:12.164Z,10.15
2022-09-01T15:25:40.497Z,6.60
2022-09-01T15:28:10.083Z,8.48
2022-09-01T15:30:39.889Z,8.10
2022-09-01T15:33:14.767Z,9.80
2022-09-01T15:35:44.490Z,10.27
2022-09-01T15:38:17.633Z,6.75
2022-09-01T15:40:55.485Z,5.68
2022-09-01T15:43:28.007Z,6.57
2022-09-01T15:45:58.220Z,4.05
2022-09-01T15:48:26.740Z,4.10
2022-09-01T15:50:55.216Z,2.92
2022-09-01T15:53:23.274Z,5.85
2022-09-01T15:55:51.373Z,5.50
2022-09-01T15:58:21.043Z,5.80
2022-09-01T16:00:51.666Z,3.50
2022-09-01T16:03:20.009Z,3.50
2022-09-01T16:05:48.100Z,5.60
2022-09-01T16:08:16.184Z,2.20
2022-09-01T16:10:44.281Z,2.28
2022-09-01T16:13:13.087Z,2.90
2022-09-01T16:15:45.768Z,5.90
2022-09-01T16:18:35.242Z,2.05
2022-09-01T16:21:12.805Z,5.53
2022-09-01T16:23:44.662Z,22.77
2022-09-01T16:26:12.959Z,5.68
2022-09-01T16:28:45.909Z,2.25
2022-09-01T16:31:15.582Z,5.35
2022-09-01T16:33:49.956Z,5.78
2022-09-01T16:36:34.762Z,2.42
2022-09-01T16:39:10.522Z,5.18
2022-09-01T16:41:50.043Z,3.10
2022-09-01T16:44:31.687Z,2.75
2022-09-01T16:47:11.064Z,3.00
2022-09-01T16:49:47.055Z,5.20
2022-09-01T16:52:22.530Z,2.13
2022-09-01T16:55:16.549Z,2.17
2022-09-01T16:57:54.140Z,1.83
2022-09-01T17:00:32.952Z,3.50
2022-09-01T17:03:17.039Z,0.95
2022-09-01T17:05:55.339Z,2.25
2022-09-01T17:08:26.021Z,3.70
2022-09-01T17:10:58.259Z,1.50
2022-09-01T17:13:38.765Z,8.90
2022-09-01T17:16:16.550Z,9.68
2022-09-01T17:18:48.512Z,14.18
2022-09-01T17:21:22.322Z,11.55
2022-09-01T17:23:58.505Z,3.78
2022-09-01T17:26:28.242Z,20.33
2022-09-01T17:29:01.279Z,12.63
2022-09-01T17:31:55.979Z,15.75
2022-09-01T17:34:35.002Z,10.40
2022-09-01T17:37:15.651Z,6.25
2022-09-01T17:39:57.557Z,10.50
2022-09-01T17:42:33.729Z,7.97
2022-09-01T17:45:12.938Z,5.07
2022-09-01T17:47:50.565Z,6.95
2022-09-01T17:50:23.260Z,4.60
2022-09-01T17:53:03.877Z,9.63
2022-09-01T17:55:46.639Z,5.18
2022-09-01T17:58:31.407Z,4.25
2022-09-01T18:01:03.059Z,14.05
2022-09-01T18:03:49.269Z,9.27
2022-09-01T18:06:26.281Z,3.28
2022-09-01T18:08:58.341Z,11.98
2022-09-01T18:11:36.658Z,6.97
2022-09-01T18:14:09.749Z,16.50
2022-09-01T18:16:44.950Z,39.95
2022-09-01T18:19:18.089Z,33.95
2022-09-01T18:21:53.110Z,35.85
2022-09-01T18:24:29.594Z,25.77
2022-09-01T18:26:57.667Z,21.13
2022-09-01T18:29:29.646Z,28.65
2022-09-01T18:32:21.761Z,21.17
2022-09-01T18:35:04.412Z,21.88
2022-09-01T18:37:44.631Z,30.52
2022-09-01T18:40:22.495Z,11.25
2022-09-01T18:42:58.113Z,11.32
2022-09-01T18:45:36.805Z,8.82
2022-09-01T18:48:16.713Z,10.27
2022-09-01T18:50:52.037Z,9.27
2022-09-01T18:53:30.033Z,6.15
2022-09-01T18:56:06.958Z,10.88
2022-09-01T18:58:53.121Z,9.82
2022-09-01T19:01:31.215Z,14.68
2022-09-01T19:04:10.350Z,7.82
2022-09-01T19:06:47.443Z,9.18
2022-09-01T19:09:22.285Z,3.72
2022-09-01T19:12:03.162Z,4.13
2022-09-01T19:14:37.299Z,3.45
2022-09-01T19:17:26.263Z,2.13
2022-09-01T19:19:58.817Z,2.65
2022-09-01T19:22:36.621Z,6.10
2022-09-01T19:25:25.658Z,4.55
2022-09-01T19:27:59.406Z,4.45
2022-09-01T19:30:27.567Z,2.65
2022-09-01T19:32:59.214Z,1.80
2022-09-01T19:35:30.802Z,6.18
2022-09-01T19:37:58.911Z,1.83
2022-09-01T19:40:33.007Z,1.50
2022-09-01T19:43:06.926Z,1.95
2022-09-01T19:45:41.804Z,4.55
2022-09-01T19:48:16.295Z,2.65
2022-09-01T19:50:51.008Z,5.78
2022-09-01T19:53:32.235Z,7.25
2022-09-01T19:56:07.375Z,4.07
2022-09-01T19:58:46.922Z,3.88
2022-09-01T20:01:18.942Z,3.53
2022-09-01T20:03:51.052Z,3.88
2022-09-01T20:09:06.407Z,4.88
2022-09-01T20:11:45.062Z,4.78
2022-09-01T20:14:36.414Z,4.65
2022-09-01T20:17:07.356Z,3.08
2022-09-01T20:19:45.225Z,5.80
2022-09-01T20:22:31.209Z,6.43
2022-09-01T20:25:10.658Z,3.22
2022-09-01T20:27:49.205Z,4.75
2022-09-01T20:30:21.499Z,2.35
2022-09-01T20:32:59.534Z,4.07
2022-09-01T20:35:37.565Z,3.08
2022-09-01T20:38:38.594Z,2.35
2022-09-01T20:41:18.125Z,6.00
2022-09-01T20:43:51.413Z,3.08
2022-09-01T20:46:22.464Z,12.02
2022-09-01T20:48:50.928Z,13.48
2022-09-01T20:51:27.526Z,8.20
2022-09-01T20:54:09.054Z,5.68
2022-09-01T20:56:45.464Z,10.40
2022-09-01T20:59:23.078Z,4.45
2022-09-01T21:01:59.248Z,6.93
2022-09-01T21:04:42.561Z,3.80
2022-09-01T21:07:16.657Z,5.22
2022-09-01T21:09:53.990Z,10.65
2022-09-01T21:12:30.205Z,6.78
2022-09-01T21:15:13.311Z,6.18
2022-09-01T21:17:51.223Z,5.38
2022-09-01T21:20:27.188Z,5.75
2022-09-01T21:22:58.052Z,4.70
2022-09-01T21:25:26.123Z,9.30
2022-09-01T21:27:57.201Z,4.90
2022-09-01T21:30:26.434Z,9.90
2022-09-01T21:32:57.096Z,11.73
2022-09-01T21:35:25.543Z,10.68
2022-09-01T21:37:54.016Z,5.65
2022-09-01T21:40:25.338Z,5.60
2022-09-01T21:42:57.846Z,2.45
2022-09-01T21:45:26.475Z,3.40
2022-09-01T21:47:56.570Z,6.20
2022-09-01T21:50:26.036Z,4.47
2022-09-01T21:52:54.206Z,1.63
2022-09-01T21:55:24.168Z,5.07
2022-09-01T21:57:52.497Z,5.32
2022-09-01T22:00:23.360Z,5.28
2022-09-01T22:02:51.597Z,3.92
2022-09-01T22:05:21.350Z,3.83
2022-09-01T22:07:49.492Z,3.08
2022-09-01T22:10:20.984Z,3.55
2022-09-01T22:12:51.075Z,4.20
2022-09-01T22:15:22.002Z,3.60
2022-09-01T22:17:51.001Z,4.20
2022-09-01T22:20:23.402Z,4.53
2022-09-01T22:22:54.703Z,4.05
2022-09-01T22:25:23.988Z,2.42
2022-09-01T22:27:52.556Z,3.63
2022-09-01T22:30:20.744Z,3.17
2022-09-01T22:32:48.807Z,1.85
2022-09-01T22:35:18.340Z,1.95
2022-09-01T22:37:48.302Z,1.90
2022-09-01T22:40:17.247Z,2.22
2022-09-01T22:42:45.890Z,3.20
2022-09-01T22:45:15.698Z,1.55
2022-09-01T22:47:43.967Z,1.25
2022-09-01T22:50:12.275Z,1.00
2022-09-01T22:52:40.606Z,1.67
2022-09-01T22:55:13.671Z,1.47
2022-09-01T22:57:42.154Z,2.78
2022-09-01T23:00:11.752Z,2.47
2022-09-01T23:02:39.999Z,1.35
2022-09-01T23:05:09.420Z,1.20
2022-09-01T23:07:39.769Z,3.90
2022-09-01T23:10:10.887Z,2.10
2022-09-01T23:12:39.005Z,2.28
2022-09-01T23:15:08.572Z,1.60
2022-09-01T23:17:37.964Z,2.55
2022-09-01T23:20:07.878Z,4.18
2022-09-01T23:22:35.973Z,5.05
2022-09-01T23:25:04.184Z,2.30
2022-09-01T23:27:33.683Z,2.20
2022-09-01T23:30:01.817Z,2.70
2022-09-01T23:32:30.150Z,5.32
2022-09-01T23:34:59.104Z,3.28
2022-09-01T23:37:27.487Z,0.80
2022-09-01T23:39:55.644Z,6.00
2022-09-01T23:42:24.162Z,3.85
2022-09-01T23:44:53.732Z,1.90
2022-09-01T23:47:21.816Z,2.22
2022-09-01T23:49:49.916Z,0.80
2022-09-01T23:52:18.309Z,3.60
2022-09-01T23:54:46.398Z,3.75
2022-09-01T23:57:14.524Z,3.50
2022-09-01T23:59:42.611Z,1.98
